Time;durP1;ratioP1;P1;durP2;ratioP2;P2;SDS_P1;SDS_P2;PMS_P1;PMS_P2;Temp;Humidity;BMP_temperature;BMP_pressure;BME280_temperature;BME280_humidity;BME280_pressure;Samples;Min_cycle;Max_cycle;Signal;HPM_P1;HPM_P2
2023/09/27 00:01:25;;;;;;;16.47;10.97;;;15.40;99.90;;;;;;4157548;28;20207;-76
2023/09/27 00:03:29;;;;;;;17.53;11.17;;;15.40;99.90;;;;;;4161868;28;20210;-76
2023/09/27 00:05:31;;;;;;;17.53;11.37;;;15.40;99.90;;;;;;4158458;28;20211;-76
2023/09/27 00:07:36;;;;;;;15.80;11.20;;;15.40;99.90;;;;;;4155117;28;20257;-76
2023/09/27 00:09:38;;;;;;;18.57;12.13;;;15.40;99.90;;;;;;4155016;28;20234;-76
2023/09/27 00:11:40;;;;;;;16.57;11.13;;;15.40;99.90;;;;;;4156611;28;20281;-76
2023/09/27 00:13:42;;;;;;;20.67;13.17;;;15.30;99.90;;;;;;4155384;28;20277;-76
2023/09/27 00:15:44;;;;;;;20.20;13.20;;;15.30;99.90;;;;;;4155336;28;20211;-76
2023/09/27 00:17:46;;;;;;;20.60;12.60;;;15.30;99.90;;;;;;4155776;28;20212;-76
2023/09/27 00:19:50;;;;;;;20.17;13.30;;;15.30;99.90;;;;;;4157240;28;20242;-76
2023/09/27 00:21:51;;;;;;;21.20;14.07;;;15.30;99.90;;;;;;4157114;28;20219;-76
2023/09/27 00:23:56;;;;;;;23.17;14.70;;;15.20;99.90;;;;;;4159565;28;20843;-76
2023/09/27 00:25:58;;;;;;;21.37;13.77;;;15.20;99.90;;;;;;4158107;28;20570;-76
2023/09/27 00:28:00;;;;;;;20.90;13.70;;;15.20;99.90;;;;;;4154816;28;20210;-76
2023/09/27 00:30:02;;;;;;;24.60;14.80;;;15.20;99.90;;;;;;4154427;28;20240;-76
2023/09/27 00:32:04;;;;;;;23.37;14.73;;;15.20;99.90;;;;;;4156539;28;20210;-76
2023/09/27 00:34:06;;;;;;;22.33;13.67;;;15.10;99.90;;;;;;4158088;28;20207;-76
2023/09/27 00:36:09;;;;;;;21.00;13.60;;;15.20;99.90;;;;;;4155265;28;20214;-76
2023/09/27 00:38:11;;;;;;;22.53;13.17;;;15.10;99.90;;;;;;4155283;28;20218;-76
2023/09/27 00:40:13;;;;;;;19.43;12.00;;;15.10;99.90;;;;;;4156869;28;20269;-76
2023/09/27 00:42:15;;;;;;;17.90;12.73;;;15.00;99.90;;;;;;4159778;28;20207;-76
2023/09/27 00:44:17;;;;;;;19.57;12.87;;;15.00;99.90;;;;;;4157682;28;20211;-76
2023/09/27 00:46:20;;;;;;;18.57;12.77;;;15.00;99.90;;;;;;4156617;28;20220;-76
2023/09/27 00:48:22;;;;;;;21.60;13.30;;;15.00;99.90;;;;;;4159457;28;20268;-76
2023/09/27 00:50:25;;;;;;;19.17;13.17;;;15.00;99.90;;;;;;4160310;28;20230;-76
2023/09/27 00:52:27;;;;;;;19.37;12.97;;;14.90;99.90;;;;;;4160110;28;20257;-76
2023/09/27 00:54:32;;;;;;;20.43;12.13;;;14.90;99.90;;;;;;4159020;28;20706;-76
2023/09/27 00:56:35;;;;;;;18.73;13.03;;;14.90;99.90;;;;;;4160158;28;20220;-76
2023/09/27 00:58:38;;;;;;;18.83;12.50;;;14.80;99.90;;;;;;4161536;28;20228;-76
2023/09/27 01:00:39;;;;;;;19.13;12.87;;;14.80;99.90;;;;;;4156017;28;20212;-76
2023/09/27 01:02:42;;;;;;;24.43;14.07;;;14.80;99.90;;;;;;4159916;28;20284;-76
2023/09/27 01:04:44;;;;;;;21.27;13.20;;;14.80;99.90;;;;;;4162666;28;20634;-76
2023/09/27 01:06:46;;;;;;;18.87;12.53;;;14.80;99.90;;;;;;4162359;28;20210;-76
2023/09/27 01:08:50;;;;;;;21.00;12.53;;;14.80;99.90;;;;;;4161381;28;20415;-76
2023/09/27 01:10:52;;;;;;;18.87;13.03;;;14.80;99.90;;;;;;4155808;28;20689;-76
2023/09/27 01:12:53;;;;;;;19.03;12.47;;;14.80;99.90;;;;;;4157420;28;20225;-76
2023/09/27 01:14:56;;;;;;;18.80;12.27;;;14.80;99.90;;;;;;4161232;28;20207;-75
2023/09/27 01:17:08;;;;;;;17.37;11.90;;;14.70;99.90;;;;;;4159834;28;20322;-76
2023/09/27 01:19:10;;;;;;;17.53;11.63;;;14.70;99.90;;;;;;4154073;28;20305;-76
2023/09/27 01:21:12;;;;;;;20.10;12.53;;;14.70;99.90;;;;;;4153933;28;20214;-76
2023/09/27 01:23:15;;;;;;;17.90;11.33;;;14.70;99.90;;;;;;4157064;28;20566;-76
2023/09/27 01:25:21;;;;;;;19.97;12.17;;;14.70;99.90;;;;;;4155133;28;20215;-76
2023/09/27 01:27:23;;;;;;;17.30;12.40;;;14.60;99.90;;;;;;4158118;28;20258;-76
2023/09/27 01:29:25;;;;;;;21.30;12.87;;;14.60;99.90;;;;;;4161418;28;20283;-76
2023/09/27 01:31:27;;;;;;;18.17;12.83;;;14.60;99.90;;;;;;4154194;28;20204;-76
2023/09/27 01:33:29;;;;;;;18.20;12.60;;;14.60;99.90;;;;;;4159636;28;20215;-76
2023/09/27 01:35:30;;;;;;;22.57;13.30;;;14.50;99.90;;;;;;4164104;28;20704;-76
2023/09/27 01:37:33;;;;;;;23.70;13.50;;;14.50;99.90;;;;;;4162084;28;20207;-75
2023/09/27 01:39:37;;;;;;;22.53;14.07;;;14.50;99.90;;;;;;4156256;28;20726;-76
2023/09/27 01:41:39;;;;;;;25.93;14.87;;;14.50;99.90;;;;;;4156886;28;20195;-76
2023/09/27 01:43:41;;;;;;;20.27;13.83;;;14.50;99.90;;;;;;4159041;28;20207;-76
2023/09/27 01:45:42;;;;;;;20.37;12.93;;;14.50;99.90;;;;;;4156591;28;20230;-75
2023/09/27 01:47:44;;;;;;;19.93;12.60;;;14.50;99.90;;;;;;4159915;28;20203;-75
2023/09/27 01:49:46;;;;;;;17.80;11.77;;;14.50;99.90;;;;;;4158141;28;20220;-76
2023/09/27 01:51:49;;;;;;;19.50;12.63;;;14.40;99.90;;;;;;4152206;28;20219;-76
2023/09/27 01:53:51;;;;;;;21.57;12.63;;;14.40;99.90;;;;;;4152284;28;20235;-76
2023/09/27 01:55:54;;;;;;;19.63;12.83;;;14.40;99.90;;;;;;4162929;28;20240;-75
2023/09/27 01:57:55;;;;;;;19.27;12.47;;;14.40;99.90;;;;;;4143782;28;20838;-75
2023/09/27 01:59:57;;;;;;;20.13;12.07;;;14.40;99.90;;;;;;4153393;28;20715;-76
2023/09/27 02:01:58;;;;;;;19.00;12.07;;;14.40;99.90;;;;;;4154199;28;20793;-76
2023/09/27 02:04:00;;;;;;;17.07;11.70;;;14.30;99.90;;;;;;4152646;28;20225;-75
2023/09/27 02:06:02;;;;;;;20.23;12.30;;;14.30;99.90;;;;;;4161180;28;20598;-75
2023/09/27 02:08:05;;;;;;;15.40;11.07;;;14.40;99.90;;;;;;4156106;28;20218;-76
2023/09/27 02:10:08;;;;;;;18.63;11.90;;;14.30;99.90;;;;;;4153608;28;20238;-75
2023/09/27 02:12:11;;;;;;;17.03;11.10;;;14.30;99.90;;;;;;4153508;28;20265;-75
2023/09/27 02:14:13;;;;;;;17.77;11.20;;;14.30;99.90;;;;;;4160365;28;20210;-76
2023/09/27 02:16:15;;;;;;;20.87;11.70;;;14.30;99.90;;;;;;4161914;28;20207;-76
2023/09/27 02:18:17;;;;;;;16.60;10.57;;;14.30;99.90;;;;;;4160159;28;20743;-76
2023/09/27 02:20:20;;;;;;;14.83;10.30;;;14.30;99.90;;;;;;4161464;28;20206;-75
2023/09/27 02:22:22;;;;;;;15.30;10.33;;;14.20;99.90;;;;;;4159675;28;20264;-76
2023/09/27 02:24:25;;;;;;;16.23;10.50;;;14.20;99.90;;;;;;4159762;28;20260;-76
2023/09/27 02:26:27;;;;;;;17.90;11.63;;;14.20;99.90;;;;;;4158602;28;20205;-76
2023/09/27 02:28:30;;;;;;;16.53;11.30;;;14.20;99.90;;;;;;4159983;28;20216;-76
2023/09/27 02:30:32;;;;;;;16.63;11.03;;;14.20;99.90;;;;;;4161379;28;20269;-75
2023/09/27 02:32:36;;;;;;;16.77;10.63;;;14.10;99.90;;;;;;4160944;28;20270;-75
2023/09/27 02:34:38;;;;;;;17.93;11.37;;;14.10;99.90;;;;;;4160515;28;20213;-75
2023/09/27 02:36:41;;;;;;;15.70;10.63;;;14.10;99.90;;;;;;4160648;28;20952;-75
2023/09/27 02:38:44;;;;;;;20.20;12.20;;;14.10;99.90;;;;;;4159694;28;20233;-75
2023/09/27 02:40:46;;;;;;;18.90;12.50;;;14.20;99.90;;;;;;4157898;28;20309;-75
2023/09/27 02:42:48;;;;;;;18.83;12.27;;;14.10;99.90;;;;;;4159751;28;20687;-76
2023/09/27 02:44:52;;;;;;;22.53;11.90;;;14.10;99.90;;;;;;4159520;28;20221;-76
2023/09/27 02:46:55;;;;;;;20.40;11.97;;;14.10;99.90;;;;;;4162295;28;20203;-76
2023/09/27 02:48:56;;;;;;;18.90;12.13;;;14.10;99.90;;;;;;4162969;28;20668;-76
2023/09/27 02:50:58;;;;;;;20.03;11.07;;;14.10;99.90;;;;;;4163486;28;20957;-76
2023/09/27 02:53:00;;;;;;;16.97;11.77;;;14.10;99.90;;;;;;4161025;28;20208;-76
2023/09/27 02:55:01;;;;;;;16.17;11.03;;;14.00;99.90;;;;;;4159293;28;20226;-76
2023/09/27 02:57:03;;;;;;;16.77;11.33;;;14.00;99.90;;;;;;4158757;28;20210;-76
2023/09/27 02:59:06;;;;;;;22.80;12.80;;;14.00;99.90;;;;;;4154055;28;20743;-76
2023/09/27 03:01:09;;;;;;;22.13;13.20;;;14.00;99.90;;;;;;4160666;28;20283;-76
2023/09/27 03:03:13;;;;;;;17.83;11.60;;;14.00;99.90;;;;;;4155575;28;20207;-75
2023/09/27 03:05:15;;;;;;;18.63;12.10;;;14.00;99.90;;;;;;4157971;28;20685;-76
2023/09/27 03:07:17;;;;;;;18.57;11.87;;;14.00;99.90;;;;;;4158286;28;21054;-76
2023/09/27 03:09:19;;;;;;;15.73;10.67;;;14.00;99.90;;;;;;4155174;28;20226;-75
2023/09/27 03:11:21;;;;;;;17.93;11.80;;;13.90;99.90;;;;;;4153971;28;20968;-76
2023/09/27 03:13:23;;;;;;;20.33;11.70;;;13.90;99.90;;;;;;4157128;28;20208;-76
2023/09/27 03:15:25;;;;;;;18.00;11.30;;;13.90;99.90;;;;;;4154035;28;20711;-76
2023/09/27 03:17:28;;;;;;;20.27;12.93;;;13.90;99.90;;;;;;4160863;28;20209;-76
2023/09/27 03:19:33;;;;;;;19.43;12.07;;;13.90;99.90;;;;;;4159323;28;20229;-75
2023/09/27 03:21:35;;;;;;;17.73;11.67;;;13.80;99.90;;;;;;4154098;28;20211;-76
2023/09/27 03:23:37;;;;;;;17.27;11.10;;;13.90;99.90;;;;;;4152943;28;20264;-76
2023/09/27 03:25:39;;;;;;;18.67;11.73;;;13.80;99.90;;;;;;4156693;28;20241;-76
2023/09/27 03:27:40;;;;;;;18.17;11.43;;;13.80;99.90;;;;;;4155280;28;20843;-76
2023/09/27 03:29:42;;;;;;;17.83;11.37;;;13.80;99.90;;;;;;4160255;28;20235;-76
2023/09/27 03:31:44;;;;;;;19.33;11.33;;;13.70;99.90;;;;;;4161425;28;20210;-76
2023/09/27 03:33:47;;;;;;;16.73;10.70;;;13.70;99.90;;;;;;4160243;28;20241;-76
2023/09/27 03:35:48;;;;;;;19.10;11.27;;;13.70;99.90;;;;;;4156754;28;20205;-76
2023/09/27 03:37:50;;;;;;;15.50;10.47;;;13.70;99.90;;;;;;4155216;28;20206;-76
2023/09/27 03:39:53;;;;;;;19.20;10.67;;;13.70;99.90;;;;;;4152349;28;20233;-76
2023/09/27 03:41:55;;;;;;;17.87;10.20;;;13.70;99.90;;;;;;4150427;28;20603;-76
2023/09/27 03:43:57;;;;;;;16.33;9.97;;;13.70;99.90;;;;;;4153626;28;20222;-76
2023/09/27 03:46:02;;;;;;;16.60;10.43;;;13.70;99.90;;;;;;4159551;28;20212;-75
2023/09/27 03:48:04;;;;;;;16.93;10.57;;;13.60;99.90;;;;;;4156278;28;20221;-76
2023/09/27 03:50:07;;;;;;;15.40;10.33;;;13.60;99.90;;;;;;4158084;28;20234;-75
2023/09/27 03:52:09;;;;;;;17.60;11.03;;;13.60;99.90;;;;;;4154372;28;20216;-75
2023/09/27 03:54:11;;;;;;;18.53;10.93;;;13.60;99.90;;;;;;4160782;28;20209;-75
2023/09/27 03:56:13;;;;;;;16.37;9.87;;;13.60;99.90;;;;;;4157355;28;20206;-76
2023/09/27 03:58:15;;;;;;;17.70;10.30;;;13.50;99.90;;;;;;4144476;28;20270;-75
2023/09/27 04:00:17;;;;;;;14.37;9.53;;;13.50;99.90;;;;;;4156797;28;20255;-75
2023/09/27 04:02:20;;;;;;;15.57;10.03;;;13.50;99.90;;;;;;4159290;28;20260;-75
2023/09/27 04:04:21;;;;;;;18.00;11.43;;;13.50;99.90;;;;;;4159847;28;20303;-75
2023/09/27 04:06:25;;;;;;;22.43;11.73;;;13.50;99.90;;;;;;4159120;28;20571;-75
2023/09/27 04:08:27;;;;;;;21.03;12.77;;;13.50;99.90;;;;;;4158284;28;20312;-76
2023/09/27 04:10:30;;;;;;;16.60;11.40;;;13.50;99.90;;;;;;4157669;28;20280;-75
2023/09/27 04:12:32;;;;;;;21.37;11.53;;;13.50;99.90;;;;;;4153662;28;20267;-75
2023/09/27 04:14:34;;;;;;;25.27;12.90;;;13.50;99.90;;;;;;4152284;28;20217;-75
2023/09/27 04:16:35;;;;;;;22.93;12.37;;;13.50;99.90;;;;;;4155193;28;20251;-75
2023/09/27 04:18:37;;;;;;;19.27;12.97;;;13.50;99.90;;;;;;4157975;28;20238;-75
2023/09/27 04:20:39;;;;;;;19.43;12.67;;;13.50;99.90;;;;;;4158454;28;20255;-75
2023/09/27 04:22:44;;;;;;;19.57;11.80;;;13.50;99.90;;;;;;4159679;28;20220;-75
2023/09/27 04:24:55;;;;;;;20.97;12.17;;;13.50;99.90;;;;;;4159504;28;20666;-75
2023/09/27 04:26:57;;;;;;;17.90;11.40;;;13.50;99.90;;;;;;4155713;28;20216;-75
2023/09/27 04:29:00;;;;;;;19.70;11.87;;;13.50;99.90;;;;;;4158433;28;20237;-75
2023/09/27 04:31:02;;;;;;;19.30;11.50;;;13.50;99.90;;;;;;4157538;28;21325;-75
2023/09/27 04:33:05;;;;;;;18.97;11.57;;;13.50;99.90;;;;;;4157371;28;20233;-75
2023/09/27 04:35:08;;;;;;;18.53;11.57;;;13.50;99.90;;;;;;4157503;28;20245;-75
2023/09/27 04:37:10;;;;;;;23.13;12.70;;;13.50;99.90;;;;;;4153135;28;20305;-75
2023/09/27 04:39:16;;;;;;;22.53;12.30;;;13.50;99.90;;;;;;4153296;28;20245;-75
2023/09/27 04:41:20;;;;;;;26.27;14.40;;;13.60;99.90;;;;;;4156467;28;20193;-75
2023/09/27 04:43:22;;;;;;;25.10;13.37;;;13.60;99.90;;;;;;4158256;28;20220;-75
2023/09/27 04:45:24;;;;;;;21.67;12.50;;;13.60;99.90;;;;;;4156840;28;20673;-75
2023/09/27 04:47:26;;;;;;;23.07;13.07;;;13.60;99.90;;;;;;4157923;28;20308;-75
2023/09/27 04:49:28;;;;;;;20.90;12.83;;;13.50;99.90;;;;;;4157082;28;20240;-75
2023/09/27 04:51:30;;;;;;;28.67;14.73;;;13.60;99.90;;;;;;4156725;28;20819;-75
2023/09/27 04:53:35;;;;;;;27.93;14.47;;;13.50;99.90;;;;;;4154649;28;20244;-75
2023/09/27 04:55:38;;;;;;;23.23;13.60;;;13.60;99.90;;;;;;4159463;28;20209;-75
2023/09/27 04:57:41;;;;;;;27.67;14.87;;;13.60;99.90;;;;;;4155668;28;20218;-75
2023/09/27 04:59:43;;;;;;;24.40;13.90;;;13.60;99.90;;;;;;4151971;28;20223;-75
2023/09/27 05:01:45;;;;;;;24.57;14.27;;;13.60;99.90;;;;;;4152905;28;20633;-75
2023/09/27 05:03:47;;;;;;;25.10;13.47;;;13.60;99.90;;;;;;4160448;28;20261;-75
2023/09/27 05:05:49;;;;;;;21.23;13.37;;;13.60;99.90;;;;;;4158086;28;20275;-75
2023/09/27 05:07:51;;;;;;;27.57;14.20;;;13.50;99.90;;;;;;4157337;28;20267;-75
2023/09/27 05:09:53;;;;;;;24.37;13.87;;;13.50;99.90;;;;;;4155770;28;20230;-75
2023/09/27 05:11:55;;;;;;;24.93;14.50;;;13.50;99.90;;;;;;4151877;28;20633;-75
2023/09/27 05:13:57;;;;;;;26.07;14.67;;;13.50;99.90;;;;;;4156231;28;20213;-75
2023/09/27 05:15:59;;;;;;;23.73;15.23;;;13.40;99.90;;;;;;4148501;28;20458;-75
2023/09/27 05:18:01;;;;;;;27.43;15.23;;;13.40;99.90;;;;;;4152640;28;20624;-75
2023/09/27 05:20:06;;;;;;;29.57;16.47;;;13.40;99.90;;;;;;4158617;28;20225;-75
2023/09/27 05:22:07;;;;;;;22.70;14.17;;;13.30;99.90;;;;;;4155941;28;20235;-75
2023/09/27 05:24:09;;;;;;;24.30;14.03;;;13.30;99.90;;;;;;4158168;28;20676;-75
2023/09/27 05:26:11;;;;;;;21.20;12.63;;;13.30;99.90;;;;;;4159026;28;20214;-75
2023/09/27 05:28:16;;;;;;;24.00;13.07;;;13.30;99.90;;;;;;4162613;28;20690;-75
2023/09/27 05:30:21;;;;;;;26.13;15.03;;;13.30;99.90;;;;;;4159633;28;20206;-74
2023/09/27 05:32:23;;;;;;;22.53;14.23;;;13.30;99.90;;;;;;4161756;28;20845;-75
2023/09/27 05:34:25;;;;;;;20.50;13.10;;;13.30;99.90;;;;;;4161924;28;20635;-73
2023/09/27 05:36:27;;;;;;;24.77;14.40;;;13.30;99.90;;;;;;4160548;28;20271;-74
2023/09/27 05:38:28;;;;;;;24.40;14.50;;;13.30;99.90;;;;;;4159788;28;20211;-76
2023/09/27 05:40:31;;;;;;;24.67;13.80;;;13.30;99.90;;;;;;4161281;28;20662;-73
2023/09/27 05:42:32;;;;;;;24.50;16.17;;;13.20;99.90;;;;;;4158187;28;20221;-73
2023/09/27 05:44:35;;;;;;;32.13;19.43;;;13.30;99.90;;;;;;4160238;28;20225;-75
2023/09/27 05:46:39;;;;;;;27.83;16.10;;;13.30;99.90;;;;;;4157543;28;20208;-73
2023/09/27 05:48:41;;;;;;;27.13;15.37;;;13.30;99.90;;;;;;4160574;28;20582;-73
2023/09/27 05:50:44;;;;;;;45.50;19.60;;;13.30;99.90;;;;;;4161209;28;20233;-73
2023/09/27 05:52:46;;;;;;;30.97;17.93;;;13.30;99.90;;;;;;4157817;28;20244;-74
2023/09/27 05:54:48;;;;;;;28.63;17.90;;;13.30;99.90;;;;;;4156408;28;20202;-76
2023/09/27 05:56:51;;;;;;;30.93;18.63;;;13.30;99.90;;;;;;4159135;28;20211;-76
2023/09/27 05:58:53;;;;;;;30.30;17.90;;;13.30;99.90;;;;;;4156927;28;20236;-76
2023/09/27 06:00:57;;;;;;;28.70;17.47;;;13.30;99.90;;;;;;4158738;28;20221;-77
2023/09/27 06:02:59;;;;;;;26.40;16.90;;;13.30;99.90;;;;;;4161023;28;20259;-76
2023/09/27 06:05:01;;;;;;;32.67;17.77;;;13.30;99.90;;;;;;4158438;28;20209;-76
2023/09/27 06:07:04;;;;;;;30.40;18.13;;;13.30;99.90;;;;;;4159299;28;20793;-75
2023/09/27 06:09:09;;;;;;;30.00;17.43;;;13.30;99.90;;;;;;4153680;28;20231;-74
2023/09/27 06:11:10;;;;;;;27.50;16.70;;;13.20;99.90;;;;;;4154210;28;20364;-75
2023/09/27 06:13:11;;;;;;;35.00;17.30;;;13.30;99.90;;;;;;4157274;28;20867;-74
2023/09/27 06:15:14;;;;;;;35.23;18.13;;;13.30;99.90;;;;;;4157806;28;20204;-75
2023/09/27 06:17:17;;;;;;;32.97;17.70;;;13.30;99.90;;;;;;4165009;28;20220;-75
2023/09/27 06:19:19;;;;;;;31.03;16.63;;;13.20;99.90;;;;;;4162561;28;20233;-75
2023/09/27 06:21:21;;;;;;;29.20;16.27;;;13.20;99.90;;;;;;4160858;28;20236;-74
2023/09/27 06:23:23;;;;;;;25.63;14.90;;;13.20;99.90;;;;;;4146149;28;20216;-74
2023/09/27 06:25:29;;;;;;;24.90;15.50;;;13.20;99.90;;;;;;4159301;28;20208;-74
2023/09/27 06:27:31;;;;;;;25.20;15.00;;;13.20;99.90;;;;;;4160213;28;20583;-74
2023/09/27 06:29:33;;;;;;;25.90;15.30;;;13.20;99.90;;;;;;4157842;28;20234;-76
2023/09/27 06:31:35;;;;;;;25.90;15.90;;;13.30;99.90;;;;;;4158945;28;20581;-74
2023/09/27 06:33:39;;;;;;;26.07;15.67;;;13.20;99.90;;;;;;4159081;28;20213;-74
2023/09/27 06:35:42;;;;;;;25.40;16.10;;;13.30;99.90;;;;;;4157860;28;20207;-74
2023/09/27 06:37:48;;;;;;;25.80;15.63;;;13.30;99.90;;;;;;4161227;28;20649;-74
2023/09/27 06:39:50;;;;;;;36.83;17.47;;;13.40;99.90;;;;;;4162219;28;20250;-74
2023/09/27 06:41:52;;;;;;;28.93;15.03;;;13.40;99.90;;;;;;4153191;28;20202;-74
2023/09/27 06:43:55;;;;;;;21.00;14.17;;;13.40;99.90;;;;;;4167925;28;20197;-74
2023/09/27 06:45:56;;;;;;;24.93;14.23;;;13.30;99.90;;;;;;4156880;28;20346;-77
2023/09/27 06:47:59;;;;;;;29.23;16.07;;;13.40;99.90;;;;;;4158531;28;20665;-74
2023/09/27 06:50:02;;;;;;;24.40;15.23;;;13.40;99.90;;;;;;4161407;28;20253;-74
2023/09/27 06:52:05;;;;;;;25.63;14.97;;;13.40;99.90;;;;;;4161876;28;20714;-74
2023/09/27 06:54:07;;;;;;;27.37;15.40;;;13.50;99.90;;;;;;4160555;28;20775;-74
2023/09/27 06:56:09;;;;;;;28.70;15.50;;;13.50;99.90;;;;;;4159375;28;20222;-74
2023/09/27 06:58:13;;;;;;;24.03;15.93;;;13.50;99.90;;;;;;4156624;28;20229;-74
2023/09/27 07:00:18;;;;;;;29.20;15.37;;;13.70;99.90;;;;;;4153274;28;20211;-74
2023/09/27 07:02:21;;;;;;;22.83;13.13;;;13.50;99.90;;;;;;4157561;28;20212;-75
2023/09/27 07:04:23;;;;;;;20.13;13.37;;;13.50;99.90;;;;;;4158572;28;20214;-75
2023/09/27 07:06:26;;;;;;;23.10;13.57;;;13.50;99.90;;;;;;4155111;28;20214;-74
2023/09/27 07:08:28;;;;;;;26.40;16.03;;;13.60;99.90;;;;;;4161406;28;20218;-75
2023/09/27 07:10:30;;;;;;;28.83;16.57;;;13.70;99.90;;;;;;4163013;28;20213;-74
2023/09/27 07:12:31;;;;;;;23.93;14.93;;;13.70;99.90;;;;;;4156252;28;20223;-74
2023/09/27 07:14:32;;;;;;;32.23;17.67;;;13.70;99.90;;;;;;4154672;28;20233;-75
2023/09/27 07:16:35;;;;;;;34.07;18.17;;;13.80;99.90;;;;;;4156548;28;20216;-74
2023/09/27 07:18:36;;;;;;;28.93;16.77;;;13.80;99.90;;;;;;4156888;28;20320;-75
2023/09/27 07:20:40;;;;;;;30.00;16.37;;;13.90;99.90;;;;;;4157830;28;20210;-76
2023/09/27 07:22:42;;;;;;;27.90;16.13;;;13.90;99.90;;;;;;4156093;28;20776;-75
2023/09/27 07:24:44;;;;;;;28.07;15.77;;;13.90;99.90;;;;;;4155958;28;20204;-75
2023/09/27 07:26:52;;;;;;;28.20;15.60;;;13.90;99.90;;;;;;4154524;28;20238;-75
2023/09/27 07:28:54;;;;;;;26.53;15.97;;;14.00;99.90;;;;;;4154402;28;20255;-75
2023/09/27 07:30:56;;;;;;;28.80;16.60;;;14.00;99.90;;;;;;4155828;28;20203;-76
2023/09/27 07:32:58;;;;;;;27.27;15.50;;;14.10;99.90;;;;;;4157197;28;20209;-76
2023/09/27 07:35:00;;;;;;;27.00;15.47;;;14.20;99.90;;;;;;4158422;28;20287;-76
2023/09/27 07:37:04;;;;;;;24.07;15.17;;;14.20;99.90;;;;;;4155529;28;20307;-75
2023/09/27 07:39:09;;;;;;;25.40;14.37;;;14.20;99.90;;;;;;4153183;28;20281;-75
2023/09/27 07:41:16;;;;;;;27.43;16.33;;;14.30;99.90;;;;;;4155124;28;20295;-75
2023/09/27 07:43:18;;;;;;;26.50;16.23;;;14.40;99.90;;;;;;4154683;28;20199;-75
2023/09/27 07:45:21;;;;;;;34.70;20.63;;;14.40;99.90;;;;;;4154761;28;20195;-75
2023/09/27 07:47:24;;;;;;;34.67;20.57;;;14.50;99.90;;;;;;4152802;28;20211;-75
2023/09/27 07:49:26;;;;;;;36.83;21.17;;;14.60;99.90;;;;;;4154823;28;20242;-75
2023/09/27 07:51:28;;;;;;;45.83;20.23;;;14.60;99.90;;;;;;4155490;28;20246;-74
2023/09/27 07:53:31;;;;;;;41.90;20.63;;;14.80;99.90;;;;;;4156800;28;20213;-74
2023/09/27 07:55:43;;;;;;;34.30;20.03;;;14.80;99.90;;;;;;4156286;28;20262;-74
2023/09/27 07:57:45;;;;;;;38.17;19.70;;;14.90;99.90;;;;;;4156413;28;20779;-74
2023/09/27 07:59:47;;;;;;;32.60;18.23;;;15.00;99.90;;;;;;4150652;28;20223;-74
2023/09/27 08:01:49;;;;;;;25.37;16.17;;;15.00;99.90;;;;;;4157055;28;20928;-74
2023/09/27 08:03:53;;;;;;;34.80;20.20;;;15.10;99.90;;;;;;4158286;28;20216;-74
2023/09/27 08:06:16;;;;;;;35.70;20.27;;;15.20;99.90;;;;;;4150889;28;20208;-74
2023/09/27 08:08:37;;;;;;;35.43;20.13;;;15.30;99.90;;;;;;4157131;28;20331;-73
2023/09/27 08:11:01;;;;;;;29.17;18.33;;;15.50;99.90;;;;;;4158385;28;20682;-75
2023/09/27 08:13:04;;;;;;;31.83;18.63;;;15.50;99.90;;;;;;4154608;28;20294;-75
2023/09/27 08:15:07;;;;;;;36.30;19.93;;;15.60;99.90;;;;;;4156512;28;20724;-75
2023/09/27 08:17:10;;;;;;;30.83;18.17;;;15.70;99.90;;;;;;4159504;28;20238;-75
2023/09/27 08:19:12;;;;;;;28.50;17.13;;;15.70;99.90;;;;;;4165097;28;20235;-74
2023/09/27 08:21:14;;;;;;;29.20;17.57;;;15.80;99.90;;;;;;4162358;28;20203;-75
2023/09/27 08:23:15;;;;;;;26.90;16.37;;;15.90;99.90;;;;;;4155868;28;20204;-75
2023/09/27 08:25:17;;;;;;;33.67;19.00;;;16.00;99.90;;;;;;4153205;28;20209;-75
2023/09/27 08:27:21;;;;;;;26.00;16.73;;;16.10;99.90;;;;;;4157533;28;20624;-75
2023/09/27 08:29:23;;;;;;;25.80;16.97;;;16.20;99.90;;;;;;4154870;28;20611;-75
2023/09/27 08:31:25;;;;;;;28.63;17.10;;;16.30;99.90;;;;;;4157934;28;20199;-75
2023/09/27 08:33:28;;;;;;;27.90;16.60;;;16.40;99.90;;;;;;4159070;28;20237;-75
2023/09/27 08:35:30;;;;;;;22.97;14.80;;;16.50;99.90;;;;;;4160635;28;20213;-75
2023/09/27 08:37:31;;;;;;;26.53;15.67;;;16.60;99.90;;;;;;4161207;28;20863;-75
2023/09/27 08:39:33;;;;;;;22.90;14.63;;;16.70;99.90;;;;;;4159291;28;20226;-75
2023/09/27 08:41:35;;;;;;;21.93;13.60;;;16.70;99.90;;;;;;4153517;28;20216;-75
2023/09/27 08:43:39;;;;;;;20.57;12.87;;;16.80;99.90;;;;;;4156752;28;20209;-75
2023/09/27 08:45:43;;;;;;;22.43;13.53;;;16.80;99.90;;;;;;4152459;28;20276;-75
2023/09/27 08:47:46;;;;;;;22.17;13.57;;;16.90;99.90;;;;;;4148662;28;20223;-76
2023/09/27 08:49:49;;;;;;;27.33;15.63;;;16.90;99.90;;;;;;4153607;28;20256;-76
2023/09/27 08:51:52;;;;;;;20.87;13.80;;;17.10;99.90;;;;;;4153636;28;20233;-76
2023/09/27 08:53:54;;;;;;;26.27;13.90;;;17.20;99.90;;;;;;4152506;28;20717;-76
2023/09/27 08:55:56;;;;;;;22.20;12.30;;;17.30;99.90;;;;;;4151966;28;20206;-76
2023/09/27 08:58:01;;;;;;;17.50;11.33;;;17.40;99.90;;;;;;4152625;28;20285;-77
2023/09/27 09:00:13;;;;;;;20.30;12.60;;;17.40;99.90;;;;;;4152584;28;20243;-74
2023/09/27 09:02:16;;;;;;;22.53;13.00;;;17.50;99.90;;;;;;4158073;28;20209;-74
2023/09/27 09:04:19;;;;;;;17.97;11.77;;;17.50;99.90;;;;;;4155797;28;20210;-74
2023/09/27 09:06:21;;;;;;;19.77;11.80;;;17.70;99.90;;;;;;4156249;28;20271;-73
2023/09/27 09:08:23;;;;;;;18.47;11.53;;;17.70;99.90;;;;;;4154441;28;20218;-74
2023/09/27 09:10:25;;;;;;;21.80;13.23;;;17.80;99.90;;;;;;4159394;28;20268;-74
2023/09/27 09:12:27;;;;;;;20.00;12.83;;;17.80;99.90;;;;;;4155660;28;20318;-74
2023/09/27 09:14:39;;;;;;;21.37;11.87;;;17.90;99.90;;;;;;4154732;28;20581;-74
2023/09/27 09:16:47;;;;;;;22.43;12.53;;;18.00;99.90;;;;;;4162092;28;20203;-74
2023/09/27 09:18:48;;;;;;;17.73;10.67;;;18.10;99.90;;;;;;4159994;28;20232;-74
2023/09/27 09:20:54;;;;;;;16.47;10.50;;;18.20;99.90;;;;;;4157355;28;20217;-74
2023/09/27 09:22:57;;;;;;;14.30;9.73;;;18.30;99.90;;;;;;4163630;28;20209;-74
2023/09/27 09:25:02;;;;;;;16.43;10.93;;;18.40;99.90;;;;;;4161118;28;20256;-74
2023/09/27 09:27:07;;;;;;;16.77;10.33;;;18.40;99.90;;;;;;4161011;28;20250;-74
2023/09/27 09:29:09;;;;;;;18.03;11.73;;;18.50;99.90;;;;;;4159210;28;20290;-74
2023/09/27 09:31:22;;;;;;;16.87;10.47;;;18.60;99.90;;;;;;4159645;28;20218;-75
2023/09/27 09:33:28;;;;;;;16.07;10.30;;;18.70;99.90;;;;;;4154378;28;20257;-75
2023/09/27 09:35:31;;;;;;;17.50;10.57;;;18.70;99.90;;;;;;4154852;28;20294;-74
2023/09/27 09:37:35;;;;;;;20.70;11.70;;;18.80;99.90;;;;;;4155383;28;20207;-74
2023/09/27 09:39:36;;;;;;;18.93;11.40;;;18.90;99.90;;;;;;4156918;28;20255;-74
2023/09/27 09:41:47;;;;;;;16.13;9.70;;;19.00;99.90;;;;;;4162521;28;20214;-74
2023/09/27 09:43:49;;;;;;;16.87;10.43;;;19.10;99.90;;;;;;4162724;28;20207;-74
2023/09/27 09:45:50;;;;;;;17.70;10.70;;;19.20;99.90;;;;;;4157732;28;20246;-74
2023/09/27 09:47:52;;;;;;;15.10;10.10;;;19.30;99.90;;;;;;4163557;28;20208;-74
2023/09/27 09:49:54;;;;;;;19.13;10.73;;;19.40;99.90;;;;;;4157963;28;20284;-74
2023/09/27 09:51:58;;;;;;;14.30;9.63;;;19.50;99.90;;;;;;4157240;28;20223;-74
2023/09/27 09:54:03;;;;;;;17.37;11.33;;;19.50;99.90;;;;;;4158265;28;20206;-74
2023/09/27 09:56:05;;;;;;;16.90;10.07;;;19.60;99.90;;;;;;4160021;28;20208;-74
2023/09/27 09:58:18;;;;;;;14.77;9.20;;;19.70;99.90;;;;;;4159967;28;20619;-74
2023/09/27 10:00:25;;;;;;;16.17;8.67;;;19.80;99.90;;;;;;4157624;28;20269;-74
2023/09/27 10:02:31;;;;;;;15.93;9.47;;;19.90;99.90;;;;;;4154394;28;20214;-74
2023/09/27 10:04:33;;;;;;;12.13;9.13;;;20.00;99.90;;;;;;4159709;28;20621;-74
2023/09/27 10:06:37;;;;;;;16.27;9.97;;;20.10;99.90;;;;;;4159389;28;20220;-74
2023/09/27 10:08:40;;;;;;;15.27;9.60;;;20.10;99.90;;;;;;4156350;28;20228;-74
2023/09/27 10:10:42;;;;;;;13.53;9.07;;;20.20;99.90;;;;;;4154509;28;20273;-74
2023/09/27 10:12:44;;;;;;;16.20;9.47;;;20.30;99.90;;;;;;4155335;28;20480;-74
2023/09/27 10:14:47;;;;;;;13.27;8.33;;;20.40;99.90;;;;;;4155461;28;20769;-76
2023/09/27 10:16:50;;;;;;;15.43;8.77;;;20.50;99.90;;;;;;4160889;28;20207;-76
2023/09/27 10:18:55;;;;;;;13.77;8.70;;;20.70;99.90;;;;;;4160450;28;20233;-75
2023/09/27 10:21:08;;;;;;;14.73;9.47;;;20.70;99.90;;;;;;4159594;28;20302;-76
2023/09/27 10:23:11;;;;;;;13.13;7.97;;;20.80;99.90;;;;;;4157392;28;20286;-74
2023/09/27 10:25:32;;;;;;;11.87;8.37;;;21.00;99.90;;;;;;4159254;28;20203;-75